Cape Byron Lighthouse, New South Wales

5:24 PM AEST on August 30, 2016 (GMT +1000)
Suffolk Park | | Change Station

Elev 33 ft 28.69 °S, 153.61 °E | Updated 1 second ago

Clear
Clear
69.4 °F
Feels Like 69.4 °F
N
0.0
Wind Variable Wind from North
Gusts 0.0 mph

Today
High -- | Low -- °F
--% Chance of Precip.
Yesterday
High -- | Low -- °F
Precip. -- in
Pressure 30.27 in
Visibility 6.2 miles
Clouds
Dew Point 63 °F
Humidity 81%
Rainfall 0.00 in
Snow Depth Not available.
6:02 AM 5:30 PM
Waning Crescent, 5% visible
METAR YLIS 300700Z AUTO 06010KT 9999 // NCD 20/10 Q1025
Pressure 30.27 in
Visibility 6.2 miles
Clouds
Dew Point 63 °F
Humidity 81%
Rainfall 0.00 in
Snow Depth Not available.
6:02 AM 5:30 PM
Waning Crescent, 5% visible
METAR YLIS 300700Z AUTO 06010KT 9999 // NCD 20/10 Q1025

10-Day Weather Forecast

Almanac

Astronomy

Aug. 30, 2016 Rise Set
Actual Time
Civil Twilight
Nautical Twilight
Astronomical Twilight
Moon
Length of Visible Light
Length of Day
Tomorrow will be .
, % of the Moon is Illuminated

Today's Extremes

Country Highs Country Lows

Community

WunderPhotos

Upload Photos

1,935,795 photos uploaded!

WunderBlog® & News

Nearby

Air Quality

  Air Quality AQ Index Pollutant
Not available.

Snow Depth

Station Depth Elevation

Earthquake Activity

City Distance Mag. Time & Date
Minimum magnitude displayed is 2.5.

Coastal Water Temperatures

Place Temperature

Stations

Nearby Weather Stations

Station Location Temp. Windchill Dew Point Humidity Wind Precip. Elev Updated Type